Time;durP1;ratioP1;P1;durP2;ratioP2;P2;SDS_P1;SDS_P2;PMS_P1;PMS_P2;Temp;Humidity;BMP_temperature;BMP_pressure;BME280_temperature;BME280_humidity;BME280_pressure;Samples;Min_cycle;Max_cycle;Signal;HPM_P1;HPM_P2
2023/10/22 00:00:44;;;;;;;0.80;0.50;;;14.70;93.80;;;;;;5055763;28;20060;-76
2023/10/22 00:03:10;;;;;;;2.05;0.38;;;14.70;93.90;;;;;;5039211;28;20029;-75
2023/10/22 00:05:35;;;;;;;0.52;0.30;;;14.60;94.00;;;;;;5039158;28;20108;-76
2023/10/22 00:08:01;;;;;;;1.90;0.40;;;14.60;94.10;;;;;;5039131;28;20037;-75
2023/10/22 00:10:27;;;;;;;1.95;0.63;;;14.60;94.30;;;;;;5073202;28;20056;-77
2023/10/22 00:12:53;;;;;;;2.22;0.32;;;14.60;94.30;;;;;;5055504;28;20021;-76
2023/10/22 00:15:20;;;;;;;0.20;0.20;;;14.50;94.20;;;;;;5073196;28;20036;-75
2023/10/22 00:17:46;;;;;;;1.80;0.50;;;14.50;94.40;;;;;;5073170;28;20055;-75
2023/10/22 00:20:13;;;;;;;0.90;0.28;;;14.50;94.40;;;;;;5055576;28;20028;-76
2023/10/22 00:22:38;;;;;;;1.27;0.20;;;14.50;94.50;;;;;;5073154;28;20054;-75
2023/10/22 00:25:05;;;;;;;0.70;0.30;;;14.50;94.70;;;;;;5073099;28;20029;-76
2023/10/22 00:27:32;;;;;;;0.77;0.47;;;14.50;94.70;;;;;;5073123;28;20100;-76
2023/10/22 00:29:59;;;;;;;0.75;0.22;;;14.50;94.70;;;;;;5055549;28;20075;-76
2023/10/22 00:32:25;;;;;;;2.17;0.55;;;14.50;94.70;;;;;;5072913;28;20108;-75
2023/10/22 00:34:50;;;;;;;2.25;0.40;;;14.50;94.80;;;;;;5055323;28;20055;-75
2023/10/22 00:37:16;;;;;;;0.77;0.30;;;14.40;94.90;;;;;;5038921;28;20025;-76
2023/10/22 00:39:42;;;;;;;1.45;0.30;;;14.50;95.00;;;;;;5073018;28;20030;-76
2023/10/22 00:42:09;;;;;;;0.80;0.50;;;14.40;95.00;;;;;;5055294;28;20028;-75
2023/10/22 00:44:35;;;;;;;0.60;0.60;;;14.40;95.00;;;;;;5074935;28;20056;-76
2023/10/22 00:47:03;;;;;;;1.38;0.75;;;14.40;95.20;;;;;;5059562;28;20031;-75
2023/10/22 00:49:29;;;;;;;0.82;0.30;;;14.40;95.20;;;;;;5059430;28;20029;-75
2023/10/22 00:51:56;;;;;;;1.02;0.40;;;14.40;95.20;;;;;;5076534;28;20037;-76
2023/10/22 00:54:24;;;;;;;1.85;0.60;;;14.40;95.20;;;;;;5076967;28;20048;-76
2023/10/22 00:56:51;;;;;;;1.77;0.70;;;14.40;95.40;;;;;;5059099;28;20028;-76
2023/10/22 00:59:17;;;;;;;0.90;0.35;;;14.40;95.30;;;;;;5042584;28;20021;-75
2023/10/22 01:01:42;;;;;;;1.38;0.68;;;14.40;95.20;;;;;;5042391;28;20067;-76
2023/10/22 01:04:08;;;;;;;1.25;0.55;;;14.40;95.40;;;;;;5059132;28;20021;-75
2023/10/22 01:06:35;;;;;;;3.20;0.70;;;14.40;95.50;;;;;;5076553;28;20056;-76
2023/10/22 01:09:01;;;;;;;3.00;0.77;;;14.40;95.40;;;;;;5058732;28;20025;-76
2023/10/22 01:11:27;;;;;;;0.82;0.43;;;14.40;95.40;;;;;;5076469;28;20111;-76
2023/10/22 01:13:53;;;;;;;3.05;0.52;;;14.50;95.50;;;;;;5058886;28;20029;-76
2023/10/22 01:16:19;;;;;;;1.58;0.30;;;14.40;95.50;;;;;;5058731;28;20032;-76
2023/10/22 01:18:44;;;;;;;0.68;0.40;;;14.40;95.40;;;;;;5042177;28;20067;-75
2023/10/22 01:21:11;;;;;;;2.70;0.55;;;14.40;95.50;;;;;;5076264;28;20036;-75
2023/10/22 01:23:39;;;;;;;1.90;0.60;;;14.40;95.70;;;;;;5076316;28;20029;-76
2023/10/22 01:26:09;;;;;;;3.20;0.70;;;14.40;95.50;;;;;;5042021;28;20056;-75
2023/10/22 01:28:35;;;;;;;0.30;0.30;;;14.40;95.30;;;;;;5059127;28;20036;-76
2023/10/22 01:31:01;;;;;;;1.50;0.50;;;14.40;95.30;;;;;;5076092;28;20067;-76
2023/10/22 01:33:27;;;;;;;2.70;0.35;;;14.40;95.20;;;;;;5058283;28;20037;-76
2023/10/22 01:35:53;;;;;;;2.47;0.77;;;14.40;95.20;;;;;;5058350;28;20055;-75
2023/10/22 01:38:18;;;;;;;1.13;0.40;;;14.40;95.30;;;;;;5058451;28;20025;-74
2023/10/22 01:40:44;;;;;;;6.47;1.20;;;14.40;95.30;;;;;;5075903;28;20040;-76
2023/10/22 01:43:09;;;;;;;1.48;0.43;;;14.40;95.50;;;;;;5075858;28;20021;-76
2023/10/22 01:45:35;;;;;;;2.55;0.50;;;14.40;95.50;;;;;;5041651;28;20025;-75
2023/10/22 01:48:01;;;;;;;0.30;0.30;;;14.40;95.50;;;;;;5075794;28;20112;-75
2023/10/22 01:50:26;;;;;;;0.93;0.20;;;14.40;95.40;;;;;;5058049;28;20029;-75
2023/10/22 01:52:52;;;;;;;1.45;0.63;;;14.40;95.40;;;;;;5075392;28;20067;-75
2023/10/22 01:55:18;;;;;;;2.58;0.60;;;14.40;95.50;;;;;;5074560;28;20036;-75
2023/10/22 01:57:44;;;;;;;2.47;0.30;;;14.40;95.70;;;;;;5058144;28;20128;-76
2023/10/22 02:00:11;;;;;;;0.60;0.30;;;14.40;95.60;;;;;;5057983;28;20021;-76
2023/10/22 02:02:39;;;;;;;1.10;0.43;;;14.40;95.60;;;;;;5057883;28;20032;-76
2023/10/22 02:05:05;;;;;;;0.90;0.40;;;14.40;95.70;;;;;;5057669;28;20021;-75
2023/10/22 02:07:31;;;;;;;0.60;0.30;;;14.40;95.70;;;;;;5057706;28;20039;-76
2023/10/22 02:09:56;;;;;;;1.15;0.25;;;14.40;95.80;;;;;;5057720;28;20037;-76
2023/10/22 02:12:29;;;;;;;1.10;0.60;;;14.40;96.30;;;;;;5041142;28;20052;-76
2023/10/22 02:14:55;;;;;;;0.28;0.28;;;14.40;96.00;;;;;;5075265;28;20044;-76
2023/10/22 02:17:21;;;;;;;1.63;0.30;;;14.30;96.20;;;;;;5040975;28;20025;-75
2023/10/22 02:19:47;;;;;;;1.15;0.32;;;14.30;96.30;;;;;;5057785;28;20028;-76
2023/10/22 02:22:13;;;;;;;2.38;0.52;;;14.30;96.60;;;;;;5041023;28;20044;-76
2023/10/22 02:24:39;;;;;;;1.05;0.70;;;14.20;96.90;;;;;;5057604;28;20092;-76
2023/10/22 02:27:05;;;;;;;1.48;0.50;;;14.30;97.10;;;;;;5075061;28;20025;-76
2023/10/22 02:29:31;;;;;;;1.75;0.60;;;14.30;97.30;;;;;;5057281;28;20044;-76
2023/10/22 02:31:57;;;;;;;3.72;0.68;;;14.20;97.40;;;;;;5057131;28;20104;-76
2023/10/22 02:34:22;;;;;;;1.27;0.85;;;14.10;97.80;;;;;;5074884;28;20025;-76
2023/10/22 02:36:48;;;;;;;2.08;0.57;;;14.20;98.10;;;;;;5057139;28;20025;-76
2023/10/22 02:39:14;;;;;;;1.63;0.82;;;14.10;98.40;;;;;;5057429;28;20039;-76
2023/10/22 02:41:39;;;;;;;1.88;0.60;;;14.10;98.50;;;;;;5074776;28;20040;-75
2023/10/22 02:44:05;;;;;;;0.77;0.60;;;14.00;98.80;;;;;;5056964;28;20131;-75
2023/10/22 02:46:31;;;;;;;3.80;0.80;;;14.00;98.90;;;;;;5074668;28;20047;-76
2023/10/22 02:48:58;;;;;;;1.75;0.70;;;13.90;99.50;;;;;;5057212;28;20040;-75
2023/10/22 02:51:24;;;;;;;1.58;0.60;;;14.00;99.30;;;;;;5040645;28;20116;-76
2023/10/22 02:53:49;;;;;;;1.80;0.60;;;14.00;99.40;;;;;;5053242;28;20053;-76
2023/10/22 02:56:15;;;;;;;4.13;0.80;;;13.90;99.70;;;;;;5036950;28;20056;-75
2023/10/22 02:58:41;;;;;;;1.88;0.80;;;13.90;99.70;;;;;;5053408;28;20021;-76
2023/10/22 03:01:09;;;;;;;1.88;0.60;;;13.90;99.70;;;;;;5053475;28;20030;-76
2023/10/22 03:03:39;;;;;;;2.42;0.60;;;13.90;99.90;;;;;;5054363;28;20045;-76
2023/10/22 03:06:08;;;;;;;3.28;0.80;;;13.80;99.90;;;;;;5054293;28;20037;-75
2023/10/22 03:08:35;;;;;;;1.65;0.73;;;13.80;99.90;;;;;;5054060;28;20025;-75
2023/10/22 03:11:02;;;;;;;1.42;0.70;;;13.80;99.90;;;;;;5036918;28;20036;-75
2023/10/22 03:13:28;;;;;;;3.33;0.93;;;13.80;99.90;;;;;;5054089;28;20392;-76
2023/10/22 03:15:54;;;;;;;4.13;0.70;;;13.80;99.90;;;;;;5036695;28;20032;-76
2023/10/22 03:18:21;;;;;;;1.33;0.60;;;13.80;99.90;;;;;;5053036;28;20049;-76
2023/10/22 03:20:46;;;;;;;2.10;0.55;;;13.80;99.90;;;;;;5054091;28;20043;-76
2023/10/22 03:23:12;;;;;;;2.00;0.73;;;13.70;99.90;;;;;;5053135;28;20033;-75
2023/10/22 03:25:39;;;;;;;0.95;0.70;;;13.70;99.90;;;;;;5053052;28;20029;-76
2023/10/22 03:28:06;;;;;;;1.55;1.00;;;13.70;99.90;;;;;;5036691;28;20052;-76
2023/10/22 03:30:36;;;;;;;3.30;1.33;;;13.70;99.90;;;;;;5053877;28;20041;-76
2023/10/22 03:33:02;;;;;;;0.95;0.70;;;13.70;99.90;;;;;;5052784;28;20026;-76
2023/10/22 03:35:27;;;;;;;3.63;1.70;;;13.70;99.90;;;;;;5052855;28;20040;-76
2023/10/22 03:37:53;;;;;;;0.85;0.68;;;13.80;99.90;;;;;;5053768;28;20037;-76
2023/10/22 03:40:19;;;;;;;2.97;1.25;;;13.70;99.90;;;;;;5052721;28;20034;-76
2023/10/22 03:42:45;;;;;;;1.88;0.90;;;13.70;99.90;;;;;;5053678;28;20063;-76
2023/10/22 03:45:12;;;;;;;1.40;0.90;;;13.80;99.90;;;;;;5052793;28;20025;-76
2023/10/22 03:47:38;;;;;;;1.58;1.10;;;13.70;99.90;;;;;;5053556;28;20056;-76
2023/10/22 03:50:04;;;;;;;1.83;0.90;;;13.70;99.90;;;;;;5053541;28;20089;-76
2023/10/22 03:52:29;;;;;;;3.38;1.20;;;13.70;99.90;;;;;;5054754;28;20045;-75
2023/10/22 03:54:55;;;;;;;3.15;0.98;;;13.70;99.90;;;;;;5055980;28;20036;-76
2023/10/22 03:57:21;;;;;;;2.95;1.17;;;13.70;99.90;;;;;;5073430;28;20080;-76
2023/10/22 03:59:46;;;;;;;2.55;1.40;;;13.70;99.90;;;;;;5039187;28;20025;-76
2023/10/22 04:02:12;;;;;;;2.70;1.40;;;13.70;99.70;;;;;;5039213;28;20025;-76
2023/10/22 04:04:38;;;;;;;3.88;2.03;;;13.70;99.90;;;;;;5055747;28;20438;-76
2023/10/22 04:07:03;;;;;;;3.88;1.55;;;13.70;99.40;;;;;;5039183;28;20051;-76
2023/10/22 04:09:29;;;;;;;3.08;1.83;;;13.60;99.30;;;;;;5073272;28;20029;-76
2023/10/22 04:11:56;;;;;;;4.60;2.05;;;13.60;99.30;;;;;;5055553;28;20048;-75
2023/10/22 04:14:21;;;;;;;3.10;1.83;;;13.60;98.80;;;;;;5055613;28;20095;-76
2023/10/22 04:16:50;;;;;;;3.35;2.00;;;13.60;98.80;;;;;;5073155;28;20024;-75
2023/10/22 04:19:15;;;;;;;2.45;2.05;;;13.60;98.70;;;;;;5072495;28;20025;-75
2023/10/22 04:21:41;;;;;;;4.93;2.38;;;13.60;98.80;;;;;;5039054;28;20022;-76
2023/10/22 04:24:07;;;;;;;4.55;2.20;;;13.70;98.70;;;;;;5055456;28;20515;-75
2023/10/22 04:26:33;;;;;;;4.20;2.60;;;13.70;98.70;;;;;;5073218;28;20029;-75
2023/10/22 04:28:58;;;;;;;4.82;2.55;;;13.60;98.40;;;;;;5073067;28;20033;-75
2023/10/22 04:31:24;;;;;;;4.13;2.38;;;13.60;98.30;;;;;;5073089;28;20044;-75
2023/10/22 04:33:50;;;;;;;4.45;2.90;;;13.70;98.40;;;;;;5072860;28;20083;-76
2023/10/22 04:36:17;;;;;;;6.05;2.75;;;13.60;98.30;;;;;;5055362;28;20025;-75
2023/10/22 04:38:42;;;;;;;5.88;2.80;;;13.60;98.30;;;;;;5072948;28;20025;-74
2023/10/22 04:41:12;;;;;;;4.75;2.92;;;13.60;98.20;;;;;;5073066;28;20060;-75
2023/10/22 04:43:37;;;;;;;6.22;3.13;;;13.60;98.20;;;;;;5055256;28;20055;-75
2023/10/22 04:46:03;;;;;;;5.03;2.78;;;13.60;98.10;;;;;;5055282;28;20116;-74
2023/10/22 04:48:30;;;;;;;6.15;3.03;;;13.60;97.90;;;;;;5072875;28;20029;-75
2023/10/22 04:50:57;;;;;;;6.18;3.17;;;13.60;97.90;;;;;;5072875;28;20025;-75
2023/10/22 04:53:23;;;;;;;6.50;2.80;;;13.60;97.80;;;;;;5072591;28;20072;-75
2023/10/22 04:55:56;;;;;;;5.50;3.15;;;13.60;97.80;;;;;;5072857;28;20029;-75
2023/10/22 04:58:22;;;;;;;9.77;3.83;;;13.60;97.90;;;;;;5072748;28;20025;-74
2023/10/22 05:00:48;;;;;;;5.65;3.35;;;13.60;97.70;;;;;;5072747;28;20049;-75
2023/10/22 05:03:13;;;;;;;5.20;3.10;;;13.60;97.80;;;;;;5055084;28;20033;-74
2023/10/22 05:05:39;;;;;;;4.95;2.83;;;13.60;97.60;;;;;;5055247;28;20021;-75
2023/10/22 05:08:09;;;;;;;6.80;3.30;;;13.60;97.60;;;;;;5055237;28;20037;-75
2023/10/22 05:10:40;;;;;;;7.55;3.30;;;13.60;97.60;;;;;;5055814;28;20515;-75
2023/10/22 05:13:08;;;;;;;6.10;3.22;;;13.60;97.70;;;;;;5072559;28;20072;-75
2023/10/22 05:15:33;;;;;;;4.72;2.95;;;13.50;97.60;;;;;;5072604;28;20518;-75
2023/10/22 05:18:00;;;;;;;5.28;3.10;;;13.60;97.40;;;;;;5055203;28;20037;-75
2023/10/22 05:20:28;;;;;;;5.18;2.88;;;13.50;97.90;;;;;;5072567;28;20056;-75
2023/10/22 05:22:54;;;;;;;5.18;2.60;;;13.50;97.50;;;;;;5038600;28;20044;-75
2023/10/22 05:25:23;;;;;;;5.63;2.72;;;13.50;97.50;;;;;;5038467;28;20055;-75
2023/10/22 05:27:49;;;;;;;8.50;2.92;;;13.50;97.40;;;;;;5054803;28;20067;-75
2023/10/22 05:30:15;;;;;;;4.40;2.67;;;13.50;97.40;;;;;;5056466;28;20029;-75
2023/10/22 05:32:41;;;;;;;6.45;2.58;;;13.50;97.40;;;;;;5076029;28;20025;-76
2023/10/22 05:35:07;;;;;;;5.78;2.63;;;13.50;97.30;;;;;;5058320;28;20047;-75
2023/10/22 05:37:33;;;;;;;3.47;2.58;;;13.40;97.20;;;;;;5041888;28;20023;-76
2023/10/22 05:39:59;;;;;;;6.15;2.63;;;13.40;97.20;;;;;;5058576;28;20035;-75
2023/10/22 05:42:25;;;;;;;6.25;3.03;;;13.40;97.10;;;;;;5075925;28;20052;-75
2023/10/22 05:44:51;;;;;;;4.35;2.38;;;13.30;97.10;;;;;;5075895;28;20096;-75
2023/10/22 05:47:17;;;;;;;5.40;2.72;;;13.20;97.10;;;;;;5058296;28;20033;-75
2023/10/22 05:49:44;;;;;;;10.60;3.35;;;13.20;97.20;;;;;;5058197;28;20052;-75
2023/10/22 05:52:10;;;;;;;6.45;2.58;;;13.20;97.20;;;;;;5058016;28;20032;-75
2023/10/22 05:54:36;;;;;;;4.30;2.60;;;13.20;97.20;;;;;;5075514;28;20095;-75
2023/10/22 05:57:02;;;;;;;4.85;2.22;;;13.20;97.20;;;;;;5057990;28;20041;-75
2023/10/22 05:59:27;;;;;;;4.97;2.28;;;13.20;97.10;;;;;;5057997;28;20021;-75
2023/10/22 06:01:53;;;;;;;3.78;2.58;;;13.20;97.00;;;;;;5058035;28;20025;-75
2023/10/22 06:04:18;;;;;;;3.58;2.35;;;13.20;97.10;;;;;;5075507;28;20037;-75
2023/10/22 06:06:44;;;;;;;3.95;2.33;;;13.20;97.00;;;;;;5075479;28;20025;-76
2023/10/22 06:09:12;;;;;;;6.38;2.22;;;13.10;96.90;;;;;;5075404;28;20036;-75
2023/10/22 06:11:38;;;;;;;3.90;2.08;;;13.10;97.00;;;;;;5075346;28;20100;-75
2023/10/22 06:14:05;;;;;;;6.10;2.40;;;13.20;97.00;;;;;;5057913;28;20033;-74
2023/10/22 06:16:31;;;;;;;4.60;2.22;;;13.20;96.90;;;;;;5075309;28;20052;-75
2023/10/22 06:18:57;;;;;;;4.43;2.30;;;13.10;96.80;;;;;;5057755;28;20051;-75
2023/10/22 06:21:22;;;;;;;3.72;2.25;;;13.10;96.80;;;;;;5075166;28;20029;-76
2023/10/22 06:23:52;;;;;;;4.70;1.73;;;13.10;96.80;;;;;;5057397;28;20024;-75
2023/10/22 06:26:17;;;;;;;3.58;1.85;;;13.10;96.70;;;;;;5075055;28;20033;-76
2023/10/22 06:28:43;;;;;;;5.60;2.03;;;13.00;96.80;;;;;;5075030;28;20037;-76
2023/10/22 06:31:11;;;;;;;3.42;1.55;;;13.00;96.90;;;;;;5057368;28;20037;-76
2023/10/22 06:33:38;;;;;;;4.60;1.75;;;13.10;96.90;;;;;;5074775;28;20025;-76
2023/10/22 06:36:24;;;;;;;3.42;2.05;;;13.10;97.00;;;;;;5074896;28;20031;-75
2023/10/22 06:38:50;;;;;;;4.57;1.60;;;13.10;96.90;;;;;;5057497;28;20032;-76
2023/10/22 06:41:21;;;;;;;2.13;1.40;;;13.10;96.90;;;;;;5056638;28;20025;-75
2023/10/22 06:43:47;;;;;;;2.15;1.35;;;13.10;97.00;;;;;;5074784;28;20040;-76
2023/10/22 06:46:14;;;;;;;2.80;1.60;;;13.10;97.00;;;;;;5074753;28;20045;-76
2023/10/22 06:48:40;;;;;;;4.43;1.52;;;13.10;97.00;;;;;;5074628;28;20055;-76
2023/10/22 06:51:10;;;;;;;4.10;1.30;;;13.10;97.10;;;;;;5074652;28;20013;-76
2023/10/22 06:53:39;;;;;;;3.15;1.80;;;13.20;97.10;;;;;;5056592;28;20060;-77
2023/10/22 06:56:06;;;;;;;2.63;1.48;;;13.20;97.10;;;;;;5074565;28;20530;-76
2023/10/22 06:58:32;;;;;;;3.75;1.50;;;13.20;97.20;;;;;;5074499;28;20025;-76
2023/10/22 07:01:05;;;;;;;3.80;1.40;;;13.20;97.40;;;;;;5074439;28;20045;-76
2023/10/22 07:03:32;;;;;;;2.15;1.30;;;13.20;97.40;;;;;;5057035;28;20092;-77
2023/10/22 07:05:58;;;;;;;3.70;1.52;;;13.20;97.50;;;;;;5056684;28;20025;-76
2023/10/22 07:08:23;;;;;;;1.77;1.30;;;13.20;97.50;;;;;;5074184;28;20039;-77
2023/10/22 07:10:49;;;;;;;2.80;1.10;;;13.20;97.40;;;;;;5040224;28;20017;-77
2023/10/22 07:13:15;;;;;;;1.75;1.20;;;13.20;97.80;;;;;;5074030;28;20029;-77
2023/10/22 07:15:40;;;;;;;3.10;1.20;;;13.30;97.40;;;;;;5056542;28;20025;-77
2023/10/22 07:18:06;;;;;;;4.63;1.20;;;13.30;97.40;;;;;;5023537;28;20043;-78
2023/10/22 07:20:32;;;;;;;2.78;1.00;;;13.30;97.40;;;;;;5056352;28;20028;-77
2023/10/22 07:22:58;;;;;;;2.35;1.20;;;13.30;97.40;;;;;;5074054;28;20025;-77
2023/10/22 07:25:24;;;;;;;2.15;1.20;;;13.30;97.30;;;;;;5056370;28;20029;-78
2023/10/22 07:27:49;;;;;;;1.95;1.00;;;13.30;97.30;;;;;;5023483;28;20083;-77
2023/10/22 07:30:15;;;;;;;2.75;1.15;;;13.30;97.30;;;;;;5039833;28;20031;-77
2023/10/22 07:32:42;;;;;;;2.85;1.27;;;13.30;97.30;;;;;;5039770;28;20051;-79
2023/10/22 07:35:08;;;;;;;3.50;1.83;;;13.30;97.40;;;;;;5039857;28;20121;-77
2023/10/22 07:37:34;;;;;;;3.58;1.48;;;13.30;97.30;;;;;;5073802;28;20017;-77
2023/10/22 07:39:59;;;;;;;2.50;1.73;;;13.30;97.30;;;;;;5073690;28;20109;-76
2023/10/22 07:42:26;;;;;;;2.10;1.60;;;13.20;97.30;;;;;;5056083;28;20108;-76
2023/10/22 07:44:52;;;;;;;2.13;1.45;;;13.20;97.40;;;;;;5056420;28;20021;-76
2023/10/22 07:47:17;;;;;;;2.67;1.40;;;13.20;97.40;;;;;;5073586;28;20087;-76
2023/10/22 07:49:43;;;;;;;3.80;1.40;;;13.20;97.40;;;;;;5039417;28;20027;-76
2023/10/22 07:52:09;;;;;;;2.05;1.38;;;13.20;97.50;;;;;;5055789;28;20036;-77
2023/10/22 07:54:34;;;;;;;1.90;1.27;;;13.10;97.70;;;;;;5072439;28;20053;-77
2023/10/22 07:57:00;;;;;;;2.45;1.45;;;13.20;97.80;;;;;;5073445;28;20033;-77
2023/10/22 07:59:26;;;;;;;3.78;1.65;;;13.20;97.90;;;;;;5073391;28;20029;-77
2023/10/22 08:01:51;;;;;;;3.50;1.63;;;13.30;97.90;;;;;;5039177;28;20025;-77
2023/10/22 08:04:17;;;;;;;3.75;1.65;;;13.40;98.00;;;;;;5039299;28;20064;-77
2023/10/22 08:06:43;;;;;;;3.63;1.50;;;13.40;98.00;;;;;;5055895;28;20040;-76
2023/10/22 08:09:08;;;;;;;4.63;1.50;;;13.50;98.10;;;;;;5073249;28;20059;-76
2023/10/22 08:11:34;;;;;;;2.90;1.25;;;13.60;98.00;;;;;;5039089;28;20025;-76
2023/10/22 08:13:59;;;;;;;1.92;1.23;;;13.60;97.90;;;;;;5073107;28;20029;-76
2023/10/22 08:16:25;;;;;;;2.85;1.40;;;13.70;97.90;;;;;;5039078;28;20031;-77
2023/10/22 08:18:51;;;;;;;3.78;1.45;;;13.70;97.80;;;;;;5055691;28;20028;-77
2023/10/22 08:21:17;;;;;;;1.65;1.30;;;13.80;98.00;;;;;;5055615;28;20029;-77
2023/10/22 08:23:43;;;;;;;2.65;1.40;;;13.90;97.90;;;;;;5039190;28;20025;-77
2023/10/22 08:26:09;;;;;;;4.32;1.70;;;14.00;97.60;;;;;;5055718;28;20050;-77
2023/10/22 08:28:35;;;;;;;3.80;1.45;;;14.10;97.50;;;;;;5073165;28;20028;-77
2023/10/22 08:31:00;;;;;;;3.38;1.10;;;14.20;97.30;;;;;;5055491;28;20020;-77
2023/10/22 08:33:26;;;;;;;5.03;1.25;;;14.20;97.00;;;;;;5073033;28;20043;-77
2023/10/22 08:35:52;;;;;;;3.10;1.10;;;14.20;97.00;;;;;;5055446;28;20052;-77
2023/10/22 08:38:17;;;;;;;2.90;1.20;;;14.10;96.90;;;;;;5055267;28;20021;-77
2023/10/22 08:40:44;;;;;;;2.90;1.48;;;14.10;96.90;;;;;;5072976;28;20044;-77
2023/10/22 08:43:17;;;;;;;5.13;1.80;;;14.10;97.20;;;;;;5055121;28;20051;-77
2023/10/22 08:45:48;;;;;;;3.90;1.27;;;14.10;97.20;;;;;;5072941;28;20025;-77
2023/10/22 08:48:15;;;;;;;2.65;1.10;;;14.10;97.10;;;;;;5056211;28;20025;-78
2023/10/22 08:50:47;;;;;;;4.97;1.50;;;14.00;97.30;;;;;;5055270;28;20021;-77
2023/10/22 08:53:14;;;;;;;2.15;1.50;;;14.10;97.30;;;;;;5051647;28;20062;-77
2023/10/22 08:55:47;;;;;;;5.18;1.25;;;14.20;97.40;;;;;;5051854;28;20029;-76
2023/10/22 08:58:19;;;;;;;4.38;1.40;;;14.20;97.80;;;;;;5052039;28;20034;-76
2023/10/22 09:00:47;;;;;;;2.63;1.35;;;14.30;97.30;;;;;;5052949;28;20036;-78
2023/10/22 09:03:18;;;;;;;3.45;1.40;;;14.40;97.40;;;;;;5052821;28;20025;-77
2023/10/22 09:05:44;;;;;;;7.22;1.67;;;14.50;97.80;;;;;;5053993;28;20030;-76
2023/10/22 09:08:10;;;;;;;2.65;1.58;;;14.50;97.80;;;;;;5056498;28;20036;-77
2023/10/22 09:10:37;;;;;;;3.38;2.00;;;14.50;97.00;;;;;;5039054;28;20089;-77
2023/10/22 09:13:22;;;;;;;3.05;1.48;;;14.60;97.40;;;;;;5055407;28;20105;-78
2023/10/22 09:15:52;;;;;;;2.90;1.63;;;14.70;97.20;;;;;;5039352;28;20028;-77
2023/10/22 09:18:18;;;;;;;2.47;1.40;;;14.70;97.40;;;;;;5055143;28;20017;-77
2023/10/22 09:20:45;;;;;;;5.00;1.70;;;14.80;97.20;;;;;;5055260;28;20049;-76
2023/10/22 09:23:19;;;;;;;4.15;1.60;;;14.80;96.90;;;;;;5039006;28;20037;-76
2023/10/22 09:25:56;;;;;;;2.05;1.33;;;14.80;96.50;;;;;;5056318;28;20056;-77
2023/10/22 09:28:27;;;;;;;2.50;1.40;;;14.80;96.80;;;;;;5056298;28;20026;-76
2023/10/22 09:31:03;;;;;;;3.47;1.85;;;14.90;96.80;;;;;;5056399;28;20036;-76
2023/10/22 09:33:38;;;;;;;3.40;1.33;;;14.90;96.80;;;;;;5056079;28;20033;-76
2023/10/22 09:36:06;;;;;;;5.95;2.70;;;14.90;96.70;;;;;;5055140;28;20032;-77
2023/10/22 09:38:49;;;;;;;5.65;1.60;;;14.90;97.30;;;;;;5038511;28;20026;-76
2023/10/22 09:41:26;;;;;;;4.88;1.58;;;14.90;96.90;;;;;;5054963;28;20094;-76
2023/10/22 09:44:00;;;;;;;4.53;1.83;;;14.90;97.10;;;;;;5055941;28;20030;-76
2023/10/22 09:46:30;;;;;;;3.58;1.80;;;14.90;96.90;;;;;;5056066;28;20060;-77
2023/10/22 09:49:06;;;;;;;4.72;1.83;;;14.90;97.00;;;;;;5055890;28;20027;-77
2023/10/22 09:51:36;;;;;;;5.20;1.63;;;14.90;97.30;;;;;;5055778;28;20361;-77
2023/10/22 09:54:06;;;;;;;4.03;1.45;;;14.90;96.90;;;;;;5070693;28;20033;-76
2023/10/22 09:56:35;;;;;;;2.95;1.60;;;14.90;96.90;;;;;;5075722;28;20491;-76
2023/10/22 09:59:07;;;;;;;4.60;1.70;;;14.90;96.80;;;;;;5058573;28;20029;-77
2023/10/22 10:01:34;;;;;;;3.42;1.63;;;14.80;97.10;;;;;;5075628;28;20097;-77
2023/10/22 10:04:05;;;;;;;5.15;2.33;;;14.80;97.30;;;;;;5057842;28;20029;-76
2023/10/22 10:06:31;;;;;;;3.58;2.20;;;14.70;97.20;;;;;;5075523;28;20025;-76
2023/10/22 10:08:58;;;;;;;2.80;1.83;;;14.80;97.40;;;;;;5057875;28;20025;-77
2023/10/22 10:11:24;;;;;;;3.50;1.90;;;14.80;97.50;;;;;;5041472;28;20100;-77
2023/10/22 10:13:50;;;;;;;3.45;2.10;;;14.70;97.20;;;;;;5075279;28;20088;-77
2023/10/22 10:16:16;;;;;;;3.33;1.77;;;14.70;97.40;;;;;;5023944;28;20079;-77
2023/10/22 10:19:02;;;;;;;5.07;2.00;;;14.60;97.20;;;;;;5041025;28;20021;-77
2023/10/22 10:21:40;;;;;;;3.80;1.88;;;14.60;97.50;;;;;;5075181;28;20021;-77
2023/10/22 10:24:17;;;;;;;4.03;2.08;;;14.70;97.20;;;;;;5075154;28;20025;-76
2023/10/22 10:26:44;;;;;;;4.10;2.40;;;14.70;97.70;;;;;;5057395;28;20096;-77
2023/10/22 10:29:15;;;;;;;2.85;1.90;;;14.60;97.60;;;;;;5057354;28;20085;-77
2023/10/22 10:31:45;;;;;;;3.58;2.00;;;14.70;97.40;;;;;;5057370;28;20092;-77
2023/10/22 10:34:41;;;;;;;4.15;2.20;;;14.70;97.50;;;;;;5057060;28;20025;-76
2023/10/22 10:37:11;;;;;;;3.35;2.10;;;14.80;97.80;;;;;;5057188;28;20017;-77
2023/10/22 10:39:37;;;;;;;3.70;1.98;;;14.80;97.90;;;;;;5057265;28;20021;-77
2023/10/22 10:42:03;;;;;;;3.42;2.50;;;14.90;97.70;;;;;;5074959;28;20029;-77
2023/10/22 10:44:29;;;;;;;4.72;2.33;;;14.90;97.70;;;;;;5057065;28;20037;-77
2023/10/22 10:46:55;;;;;;;5.47;2.45;;;15.00;97.50;;;;;;5074692;28;20036;-76
2023/10/22 10:49:52;;;;;;;4.50;2.50;;;15.00;97.50;;;;;;5040474;28;20157;-77
2023/10/22 10:52:17;;;;;;;3.58;2.33;;;15.10;97.50;;;;;;5074355;28;20083;-77
2023/10/22 10:54:58;;;;;;;4.25;2.40;;;15.00;97.00;;;;;;5057205;28;20025;-76
2023/10/22 10:57:48;;;;;;;4.30;2.40;;;15.10;97.00;;;;;;5056959;28;20074;-77
2023/10/22 11:00:21;;;;;;;4.57;2.40;;;15.10;97.00;;;;;;5056838;28;20021;-77
2023/10/22 11:02:52;;;;;;;4.40;2.42;;;15.10;96.80;;;;;;5074434;28;20035;-77
2023/10/22 11:05:37;;;;;;;4.88;2.40;;;15.10;96.70;;;;;;5074425;28;20028;-77
2023/10/22 11:08:18;;;;;;;4.60;2.30;;;15.10;96.80;;;;;;5056705;28;20028;-77
2023/10/22 11:10:47;;;;;;;4.72;2.13;;;15.10;96.60;;;;;;5057518;28;20029;-76
2023/10/22 11:13:13;;;;;;;5.05;2.58;;;15.00;97.00;;;;;;5074115;28;20035;-77
2023/10/22 11:15:40;;;;;;;5.07;2.60;;;15.00;96.80;;;;;;5074132;28;20064;-76
2023/10/22 11:18:09;;;;;;;5.75;2.35;;;15.10;96.90;;;;;;5074100;28;20021;-77
2023/10/22 11:20:36;;;;;;;7.03;2.55;;;15.10;96.40;;;;;;5056457;28;20021;-77
2023/10/22 11:23:02;;;;;;;3.83;2.13;;;15.00;96.00;;;;;;5056468;28;20032;-77
2023/10/22 11:25:29;;;;;;;2.65;2.00;;;15.00;96.20;;;;;;5073923;28;20020;-77
2023/10/22 11:27:55;;;;;;;4.75;2.13;;;15.10;96.00;;;;;;5039800;28;20033;-77
2023/10/22 11:30:37;;;;;;;3.45;2.20;;;15.10;96.10;;;;;;5039822;28;20112;-76
2023/10/22 11:33:07;;;;;;;5.45;2.55;;;15.20;96.30;;;;;;5073907;28;20084;-77
2023/10/22 11:35:33;;;;;;;3.60;2.10;;;15.30;96.20;;;;;;5073687;28;20045;-76
2023/10/22 11:37:59;;;;;;;4.32;2.40;;;15.30;96.40;;;;;;5056265;28;20017;-76
2023/10/22 11:40:30;;;;;;;4.75;2.33;;;15.30;96.20;;;;;;5039869;28;20369;-76
2023/10/22 11:43:16;;;;;;;3.83;2.10;;;15.30;95.80;;;;;;5073651;28;20025;-76
2023/10/22 11:45:51;;;;;;;3.65;2.10;;;15.30;96.00;;;;;;5073628;28;20035;-76
2023/10/22 11:48:19;;;;;;;4.15;2.08;;;15.40;96.30;;;;;;5056004;28;20051;-76
2023/10/22 11:50:49;;;;;;;4.60;2.30;;;15.30;96.10;;;;;;5073543;28;20021;-76
2023/10/22 11:53:16;;;;;;;3.88;2.47;;;15.30;96.10;;;;;;5073252;28;20069;-76
2023/10/22 11:55:42;;;;;;;4.38;2.20;;;15.30;96.10;;;;;;5055773;28;20028;-76
2023/10/22 11:58:27;;;;;;;5.20;2.17;;;15.30;95.80;;;;;;5073384;28;20053;-76
2023/10/22 12:00:53;;;;;;;5.47;2.20;;;15.30;95.70;;;;;;5039714;28;20028;-76
2023/10/22 12:03:19;;;;;;;3.95;2.42;;;15.20;95.80;;;;;;5055655;28;20037;-76
2023/10/22 12:05:45;;;;;;;5.80;3.13;;;15.20;95.80;;;;;;5039196;28;20028;-76
2023/10/22 12:08:11;;;;;;;5.50;2.58;;;15.30;95.80;;;;;;5073297;28;20032;-76
2023/10/22 12:10:37;;;;;;;3.42;1.90;;;15.30;95.80;;;;;;5039206;28;20055;-76
2023/10/22 12:13:05;;;;;;;3.63;2.22;;;15.20;94.80;;;;;;5055510;28;20025;-76
2023/10/22 12:15:31;;;;;;;3.33;2.33;;;15.10;94.50;;;;;;5073241;28;20051;-77
2023/10/22 12:17:57;;;;;;;5.43;2.50;;;15.10;94.80;;;;;;5073248;28;20025;-77
2023/10/22 12:20:23;;;;;;;3.92;2.30;;;15.20;94.80;;;;;;5055669;28;20439;-77
2023/10/22 12:22:49;;;;;;;5.72;2.47;;;15.20;94.70;;;;;;5055486;28;20392;-77
2023/10/22 12:25:15;;;;;;;4.63;2.15;;;15.20;94.90;;;;;;5073090;28;20029;-76
2023/10/22 12:27:41;;;;;;;3.88;2.08;;;15.20;94.80;;;;;;5073294;28;20039;-76
2023/10/22 12:30:07;;;;;;;3.72;1.85;;;15.20;95.20;;;;;;5039027;28;20032;-76
2023/10/22 12:32:33;;;;;;;3.10;1.83;;;15.20;94.90;;;;;;5073014;28;20020;-76
2023/10/22 12:35:02;;;;;;;3.25;1.95;;;15.20;94.70;;;;;;5055483;28;20031;-76
2023/10/22 12:37:27;;;;;;;3.35;1.83;;;15.20;94.60;;;;;;5073009;28;20048;-77
2023/10/22 12:39:53;;;;;;;3.72;2.05;;;15.20;94.50;;;;;;5056332;28;20021;-76
2023/10/22 12:42:18;;;;;;;4.80;2.45;;;15.10;94.80;;;;;;5059506;28;20029;-76
2023/10/22 12:44:45;;;;;;;4.43;2.22;;;15.10;95.40;;;;;;5059432;28;20025;-76
2023/10/22 12:47:15;;;;;;;5.55;2.90;;;15.00;95.50;;;;;;5077025;28;20029;-77
2023/10/22 12:49:44;;;;;;;4.47;3.03;;;15.00;96.00;;;;;;5076931;28;20025;-76